createdAt,value
2022-09-06T00:01:18.739Z,20.20
2022-09-06T00:03:47.458Z,20.30
2022-09-06T00:06:17.584Z,20.30
2022-09-06T00:08:48.404Z,20.30
2022-09-06T00:11:17.592Z,20.30
2022-09-06T00:13:46.405Z,20.30
2022-09-06T00:16:17.053Z,20.30
2022-09-06T00:18:45.799Z,20.30
2022-09-06T00:21:19.410Z,20.30
2022-09-06T00:23:48.950Z,20.30
2022-09-06T00:26:17.066Z,20.20
2022-09-06T00:28:45.131Z,20.20
2022-09-06T00:31:15.462Z,20.30
2022-09-06T00:33:43.671Z,20.30
2022-09-06T00:36:12.462Z,20.30
2022-09-06T00:38:41.656Z,20.40
2022-09-06T00:41:13.196Z,20.40
2022-09-06T00:43:41.929Z,20.40
2022-09-06T00:46:13.200Z,20.40
2022-09-06T00:48:42.334Z,20.50
2022-09-06T00:51:12.759Z,20.50
2022-09-06T00:53:41.546Z,20.60
2022-09-06T00:56:11.329Z,20.60
2022-09-06T00:58:39.642Z,20.60
2022-09-06T01:01:08.036Z,20.60
2022-09-06T01:03:37.269Z,20.70
2022-09-06T01:06:18.755Z,20.60
2022-09-06T01:09:00.204Z,20.60
2022-09-06T01:11:56.545Z,20.60
2022-09-06T01:14:38.202Z,20.60
2022-09-06T01:17:16.541Z,20.60
2022-09-06T01:20:21.360Z,20.70
2022-09-06T01:23:20.862Z,20.70
2022-09-06T01:26:00.854Z,20.70
2022-09-06T01:28:42.712Z,20.80
2022-09-06T01:31:20.080Z,20.80
2022-09-06T01:33:58.615Z,20.80
2022-09-06T01:36:33.339Z,20.80
2022-09-06T01:39:01.369Z,20.80
2022-09-06T01:41:30.420Z,20.70
2022-09-06T01:44:00.468Z,20.70
2022-09-06T01:46:35.230Z,20.70
2022-09-06T01:49:34.749Z,20.60
2022-09-06T01:52:12.701Z,20.50
2022-09-06T01:54:55.085Z,20.40
2022-09-06T01:57:39.017Z,20.30
2022-09-06T02:00:10.607Z,20.30
2022-09-06T02:02:49.676Z,20.20
2022-09-06T02:05:25.263Z,20.10
2022-09-06T02:08:02.959Z,20.10
2022-09-06T02:10:37.647Z,20.00
2022-09-06T02:13:08.517Z,19.90
2022-09-06T02:15:44.240Z,19.80
2022-09-06T02:18:16.692Z,19.70
2022-09-06T02:20:51.693Z,19.60
2022-09-06T02:23:22.037Z,19.60
2022-09-06T02:25:54.477Z,19.50
2022-09-06T02:28:23.384Z,19.40
2022-09-06T02:30:59.048Z,19.30
2022-09-06T02:33:31.168Z,19.30
2022-09-06T02:36:05.515Z,19.30
2022-09-06T02:38:36.173Z,19.20
2022-09-06T02:41:05.596Z,19.20
2022-09-06T02:43:33.916Z,19.20
2022-09-06T02:46:03.576Z,19.10
2022-09-06T02:48:31.748Z,19.10
2022-09-06T02:51:03.841Z,19.00
2022-09-06T02:53:31.961Z,19.00
2022-09-06T02:56:00.273Z,18.90
2022-09-06T02:58:29.421Z,18.90
2022-09-06T03:00:57.629Z,18.80
2022-09-06T03:03:28.135Z,18.80
2022-09-06T03:05:56.510Z,18.70
2022-09-06T03:08:26.614Z,18.70
2022-09-06T03:10:56.344Z,18.70
2022-09-06T03:13:25.731Z,18.70
2022-09-06T03:15:55.172Z,18.70
2022-09-06T03:18:23.298Z,18.60
2022-09-06T03:20:53.307Z,18.60
2022-09-06T03:23:23.541Z,18.60
2022-09-06T03:25:52.318Z,18.60
2022-09-06T03:28:20.964Z,18.50
2022-09-06T03:30:50.696Z,18.50
2022-09-06T03:33:19.079Z,18.50
2022-09-06T03:35:53.457Z,18.50
2022-09-06T03:38:22.218Z,18.40
2022-09-06T03:40:51.418Z,18.40
2022-09-06T03:43:19.867Z,18.40
2022-09-06T03:45:49.259Z,18.40
2022-09-06T03:48:18.908Z,18.40
2022-09-06T03:50:47.691Z,18.40
2022-09-06T03:53:18.556Z,18.40
2022-09-06T03:55:47.708Z,18.30
2022-09-06T03:58:16.677Z,18.30
2022-09-06T04:00:45.652Z,18.30
2022-09-06T04:03:14.045Z,18.30
2022-09-06T04:05:42.190Z,18.30
2022-09-06T04:08:10.318Z,18.30
2022-09-06T04:10:39.955Z,18.40
2022-09-06T04:13:08.155Z,18.30
2022-09-06T04:15:37.027Z,18.30
2022-09-06T04:18:09.130Z,18.40
2022-09-06T04:20:37.472Z,18.40
2022-09-06T04:23:05.837Z,18.30
2022-09-06T04:25:33.896Z,18.30
2022-09-06T04:28:03.982Z,18.30
2022-09-06T04:30:32.314Z,18.20
2022-09-06T04:33:00.389Z,18.10
2022-09-06T04:35:28.474Z,18.00
2022-09-06T04:37:56.458Z,18.10
2022-09-06T04:40:24.607Z,18.10
2022-09-06T04:42:52.752Z,18.20
2022-09-06T04:45:22.295Z,18.30
2022-09-06T04:47:51.447Z,18.30
2022-09-06T04:50:19.596Z,18.30
2022-09-06T04:52:47.683Z,18.20
2022-09-06T04:55:16.088Z,17.90
2022-09-06T04:57:46.650Z,17.70
2022-09-06T05:00:17.980Z,17.40
2022-09-06T05:02:48.491Z,17.30
2022-09-06T05:05:16.787Z,17.30
2022-09-06T05:07:44.834Z,17.30
2022-09-06T05:10:13.070Z,17.30
2022-09-06T05:12:44.291Z,17.30
2022-09-06T05:15:12.960Z,17.40
2022-09-06T05:17:41.076Z,17.30
2022-09-06T05:20:11.983Z,17.20
2022-09-06T05:22:40.791Z,17.20
2022-09-06T05:25:10.256Z,17.30
2022-09-06T05:27:38.434Z,17.20
2022-09-06T05:30:07.391Z,17.10
2022-09-06T05:32:35.726Z,17.00
2022-09-06T05:35:03.890Z,17.00
2022-09-06T05:37:33.425Z,17.00
2022-09-06T05:40:01.812Z,17.10
2022-09-06T05:42:30.056Z,17.20
2022-09-06T05:44:58.136Z,17.20
2022-09-06T05:47:26.274Z,17.20
2022-09-06T05:49:55.526Z,17.10
2022-09-06T05:52:23.627Z,17.10
2022-09-06T05:54:53.035Z,17.20
2022-09-06T05:57:21.244Z,17.10
2022-09-06T05:59:49.336Z,17.10
2022-09-06T06:02:17.598Z,17.10
2022-09-06T06:04:45.753Z,17.20
2022-09-06T06:07:13.810Z,17.20
2022-09-06T06:09:41.922Z,17.10
2022-09-06T06:12:11.653Z,17.10
2022-09-06T06:14:39.834Z,17.10
2022-09-06T06:17:07.898Z,17.10
2022-09-06T06:19:36.570Z,17.10
2022-09-06T06:22:04.566Z,17.20
2022-09-06T06:24:32.765Z,17.20
2022-09-06T06:27:00.875Z,17.20
2022-09-06T06:29:30.432Z,17.30
2022-09-06T06:31:58.684Z,17.30
2022-09-06T06:34:26.817Z,17.40
2022-09-06T06:36:54.866Z,17.40
2022-09-06T06:39:23.137Z,17.50
2022-09-06T06:41:51.291Z,17.70
2022-09-06T06:44:19.425Z,17.80
2022-09-06T06:46:48.950Z,17.90
2022-09-06T06:49:17.160Z,17.90
2022-09-06T06:51:45.378Z,18.00
2022-09-06T06:54:13.503Z,18.00
2022-09-06T06:56:42.367Z,18.20
2022-09-06T06:59:10.591Z,18.30
2022-09-06T07:01:39.173Z,18.40
2022-09-06T07:04:10.562Z,18.50
2022-09-06T07:12:27.059Z,18.80
2022-09-06T07:14:55.727Z,18.90
2022-09-06T07:17:24.066Z,19.00
2022-09-06T07:22:42.272Z,19.10
2022-09-06T07:25:13.381Z,19.10
2022-09-06T07:27:47.514Z,19.10
2022-09-06T07:30:16.828Z,19.20
2022-09-06T07:32:45.080Z,19.30
2022-09-06T07:35:14.911Z,19.30
2022-09-06T07:37:43.101Z,19.40
2022-09-06T07:40:12.213Z,19.50
2022-09-06T07:42:40.417Z,19.50
2022-09-06T07:45:09.542Z,19.70
2022-09-06T07:53:22.963Z,19.90
2022-09-06T07:55:57.302Z,19.90
2022-09-06T07:58:25.446Z,20.00
2022-09-06T08:00:53.787Z,20.00
2022-09-06T08:03:22.116Z,20.20
2022-09-06T08:11:24.800Z,20.60
2022-09-06T08:13:54.847Z,20.60
2022-09-06T08:16:24.038Z,20.70
2022-09-06T08:18:53.529Z,20.80
2022-09-06T08:21:24.615Z,20.90
2022-09-06T08:23:55.555Z,21.00
2022-09-06T08:26:25.194Z,21.10
2022-09-06T08:28:55.887Z,21.20
2022-09-06T08:31:24.101Z,21.40
2022-09-06T08:33:53.071Z,21.50
2022-09-06T08:36:22.979Z,21.60
2022-09-06T08:38:51.100Z,21.70
2022-09-06T08:41:26.261Z,21.80
2022-09-06T08:46:56.852Z,22.00
2022-09-06T08:49:27.017Z,22.20
2022-09-06T08:52:23.767Z,22.30
2022-09-06T08:54:59.865Z,22.50
2022-09-06T08:57:41.323Z,22.60
2022-09-06T09:00:13.047Z,22.80
2022-09-06T09:02:46.404Z,22.90
2022-09-06T09:05:27.739Z,23.00
2022-09-06T09:08:09.107Z,23.10
2022-09-06T09:10:43.896Z,23.30
2022-09-06T09:13:21.803Z,23.40
2022-09-06T09:15:49.982Z,23.50
2022-09-06T09:18:24.178Z,23.60
2022-09-06T09:20:52.472Z,23.60
2022-09-06T09:23:21.947Z,23.80
2022-09-06T09:25:53.401Z,23.90
2022-09-06T09:28:25.925Z,24.00
2022-09-06T09:30:56.003Z,24.00
2022-09-06T09:33:28.240Z,24.20
2022-09-06T09:35:57.527Z,24.30
2022-09-06T09:38:29.334Z,24.40
2022-09-06T09:40:59.682Z,24.50
2022-09-06T09:43:31.461Z,24.60
2022-09-06T09:46:15.402Z,24.70
2022-09-06T09:48:49.729Z,24.80
2022-09-06T09:51:26.506Z,24.80
2022-09-06T09:53:58.062Z,25.00
2022-09-06T09:56:38.795Z,25.00
2022-09-06T09:59:18.394Z,25.10
2022-09-06T10:01:46.466Z,25.10
2022-09-06T10:07:11.363Z,25.10
2022-09-06T10:09:42.629Z,25.30
2022-09-06T10:12:17.946Z,25.50
2022-09-06T10:14:47.645Z,25.60
2022-09-06T10:17:29.728Z,25.70
2022-09-06T10:19:59.100Z,25.70
2022-09-06T10:22:31.640Z,25.90
2022-09-06T10:25:35.148Z,26.00
2022-09-06T10:28:26.878Z,26.00
2022-09-06T10:31:23.951Z,26.10
2022-09-06T10:34:02.056Z,26.10
2022-09-06T10:36:35.522Z,26.10
2022-09-06T10:39:08.186Z,26.10
2022-09-06T10:41:51.915Z,26.20
2022-09-06T10:44:36.038Z,26.30
2022-09-06T10:47:11.553Z,26.30
2022-09-06T10:49:41.651Z,26.30
2022-09-06T10:52:14.782Z,26.60
2022-09-06T10:54:46.883Z,26.80
2022-09-06T11:00:14.471Z,26.90
2022-09-06T11:02:49.172Z,26.80
2022-09-06T11:05:42.245Z,26.90
2022-09-06T11:11:07.140Z,26.90
2022-09-06T11:13:35.114Z,27.00
2022-09-06T11:16:10.427Z,27.20
2022-09-06T11:18:44.079Z,27.10
2022-09-06T11:21:39.475Z,27.20
2022-09-06T11:24:13.560Z,27.30
2022-09-06T11:26:46.633Z,27.50
2022-09-06T11:29:25.345Z,27.60
2022-09-06T11:34:54.644Z,27.30
2022-09-06T11:37:28.108Z,27.50
2022-09-06T11:40:30.867Z,27.50
2022-09-06T11:43:15.593Z,27.80
2022-09-06T11:45:47.751Z,27.90
2022-09-06T11:48:44.914Z,27.90
2022-09-06T11:51:12.943Z,27.80
2022-09-06T11:54:07.361Z,27.90
2022-09-06T11:56:41.732Z,28.00
2022-09-06T11:59:21.369Z,28.10
2022-09-06T12:02:02.873Z,28.30
2022-09-06T12:05:13.382Z,28.30
2022-09-06T12:08:31.720Z,28.50
2022-09-06T12:11:05.913Z,28.40
2022-09-06T12:13:49.301Z,28.40
2022-09-06T12:16:19.052Z,28.40
2022-09-06T12:19:02.994Z,28.40
2022-09-06T12:21:52.136Z,28.50
2022-09-06T12:24:56.379Z,28.70
2022-09-06T12:27:26.879Z,28.90
2022-09-06T12:29:59.257Z,29.00
2022-09-06T12:32:34.792Z,28.90
2022-09-06T12:37:58.276Z,28.70
2022-09-06T12:40:30.341Z,29.00
2022-09-06T12:42:59.092Z,29.10
2022-09-06T12:45:27.805Z,29.00
2022-09-06T12:48:07.246Z,29.00
2022-09-06T12:50:35.443Z,29.10
2022-09-06T12:53:05.862Z,29.20
2022-09-06T12:55:37.531Z,29.30
2022-09-06T12:58:07.227Z,29.10
2022-09-06T13:00:39.472Z,29.10
2022-09-06T13:03:18.260Z,29.20
2022-09-06T13:05:47.146Z,29.20
2022-09-06T13:08:19.571Z,29.10
2022-09-06T13:10:49.369Z,29.00
2022-09-06T13:13:21.681Z,29.20
2022-09-06T13:15:49.913Z,29.50
2022-09-06T13:18:23.834Z,29.50
2022-09-06T13:21:03.133Z,29.50
2022-09-06T13:23:41.047Z,29.50
2022-09-06T13:26:11.910Z,29.60
2022-09-06T13:28:39.924Z,29.70
2022-09-06T13:31:11.211Z,29.80
2022-09-06T13:33:40.584Z,29.80
2022-09-06T13:36:21.940Z,30.00
2022-09-06T13:38:50.800Z,30.00
2022-09-06T13:41:38.281Z,30.10
2022-09-06T13:44:07.949Z,30.20
2022-09-06T13:46:37.093Z,30.40
2022-09-06T13:49:06.057Z,30.40
2022-09-06T13:51:34.260Z,30.50
2022-09-06T13:54:07.562Z,30.20
2022-09-06T13:56:49.963Z,30.30
2022-09-06T13:59:19.307Z,30.30
2022-09-06T14:01:48.921Z,30.60
2022-09-06T14:04:22.399Z,30.90
2022-09-06T14:06:50.915Z,30.90
2022-09-06T14:09:18.965Z,31.00
2022-09-06T14:12:37.058Z,31.00
2022-09-06T14:15:07.598Z,30.80
2022-09-06T14:17:35.630Z,30.90
2022-09-06T14:20:04.198Z,30.90
2022-09-06T14:22:32.258Z,30.80
2022-09-06T14:25:00.491Z,30.90
2022-09-06T14:27:28.540Z,31.00
2022-09-06T14:29:56.495Z,31.00
2022-09-06T14:32:26.148Z,30.90
2022-09-06T14:34:54.512Z,30.80
2022-09-06T14:37:22.645Z,30.80
2022-09-06T14:40:27.913Z,30.70
2022-09-06T14:42:57.015Z,30.70
2022-09-06T14:45:25.690Z,30.50
2022-09-06T14:47:55.117Z,30.40
2022-09-06T14:50:23.531Z,30.30
2022-09-06T14:52:51.631Z,30.20
2022-09-06T14:55:19.768Z,30.40
2022-09-06T14:57:48.091Z,30.50
2022-09-06T15:00:17.247Z,30.50
2022-09-06T15:02:45.311Z,30.50
2022-09-06T15:05:14.773Z,30.20
2022-09-06T15:07:43.207Z,30.00
2022-09-06T15:10:11.392Z,29.60
2022-09-06T15:12:39.472Z,29.40
2022-09-06T15:15:08.058Z,29.20
2022-09-06T15:17:36.632Z,29.10
2022-09-06T15:20:05.754Z,28.90
2022-09-06T15:22:35.266Z,28.70
2022-09-06T15:25:03.271Z,28.50
2022-09-06T15:27:31.364Z,28.30
2022-09-06T15:29:59.359Z,28.10
2022-09-06T15:32:28.044Z,28.00
2022-09-06T15:34:56.110Z,27.90
2022-09-06T15:37:24.177Z,27.80
2022-09-06T15:39:56.717Z,27.70
2022-09-06T15:42:34.767Z,27.50
2022-09-06T15:45:02.789Z,27.20
2022-09-06T15:47:30.942Z,27.20
2022-09-06T15:49:58.974Z,27.20
2022-09-06T15:52:27.019Z,27.40
2022-09-06T15:55:13.666Z,27.60
2022-09-06T15:57:42.046Z,27.80
2022-09-06T16:00:11.683Z,28.00
2022-09-06T16:02:39.806Z,28.00
2022-09-06T16:05:08.488Z,28.00
2022-09-06T16:07:40.908Z,28.00
2022-09-06T16:10:11.745Z,28.00
2022-09-06T16:12:39.861Z,28.10
2022-09-06T16:15:09.021Z,28.20
2022-09-06T16:17:37.159Z,28.00
2022-09-06T16:20:05.794Z,28.00
2022-09-06T16:22:33.994Z,28.10
2022-09-06T16:25:02.071Z,28.20
2022-09-06T16:27:31.502Z,28.20
2022-09-06T16:29:59.811Z,28.10
2022-09-06T16:32:27.868Z,28.10
2022-09-06T16:34:56.176Z,28.00
2022-09-06T16:37:24.399Z,28.10
2022-09-06T16:39:52.544Z,27.90
2022-09-06T16:42:20.640Z,27.70
2022-09-06T16:44:50.369Z,27.60
2022-09-06T16:47:18.426Z,27.30
2022-09-06T16:49:46.469Z,27.00
2022-09-06T16:52:14.584Z,26.80
2022-09-06T16:54:42.646Z,26.70
2022-09-06T16:57:10.834Z,26.80
2022-09-06T16:59:39.191Z,26.80
2022-09-06T17:02:08.716Z,26.80
2022-09-06T17:04:37.677Z,26.70
2022-09-06T17:07:05.791Z,26.50
2022-09-06T17:09:35.184Z,26.30
2022-09-06T17:12:03.744Z,26.20
2022-09-06T17:14:31.756Z,25.90
2022-09-06T17:17:04.505Z,25.80
2022-09-06T17:19:36.443Z,25.50
2022-09-06T17:22:06.214Z,25.30
2022-09-06T17:24:34.272Z,25.10
2022-09-06T17:27:02.325Z,24.90
2022-09-06T17:29:31.286Z,24.70
2022-09-06T17:31:59.383Z,24.60
2022-09-06T17:34:27.606Z,24.40
2022-09-06T17:36:56.958Z,24.30
2022-09-06T17:39:25.118Z,24.20
2022-09-06T17:41:54.296Z,24.00
2022-09-06T17:44:24.543Z,23.90
2022-09-06T17:49:41.302Z,23.60
2022-09-06T17:52:11.107Z,23.50
2022-09-06T17:54:39.203Z,23.40
2022-09-06T17:57:07.301Z,23.30
2022-09-06T17:59:36.113Z,23.20
2022-09-06T18:02:04.961Z,23.10
2022-09-06T18:04:33.246Z,23.00
2022-09-06T18:07:01.390Z,22.90
2022-09-06T18:09:30.915Z,22.80
2022-09-06T18:11:59.176Z,22.60
2022-09-06T18:14:28.581Z,22.50
2022-09-06T18:16:57.329Z,22.40
2022-09-06T18:19:26.137Z,22.30
2022-09-06T18:21:54.684Z,22.20
2022-09-06T18:24:22.801Z,22.10
2022-09-06T18:26:52.221Z,22.00
2022-09-06T18:29:20.773Z,21.90
2022-09-06T18:31:48.932Z,21.80
2022-09-06T18:34:17.144Z,21.70
2022-09-06T18:36:45.166Z,21.50
2022-09-06T18:39:13.356Z,21.40
2022-09-06T18:41:58.891Z,21.40
2022-09-06T18:44:31.900Z,21.40
2022-09-06T18:47:01.414Z,21.30
2022-09-06T18:49:31.373Z,21.30
2022-09-06T18:51:59.531Z,21.30
2022-09-06T18:54:27.772Z,21.30
2022-09-06T18:56:55.923Z,21.20
2022-09-06T18:59:24.447Z,21.20
2022-09-06T19:01:53.981Z,21.20
2022-09-06T19:04:22.319Z,21.10
2022-09-06T19:06:50.494Z,21.20
2022-09-06T19:09:21.081Z,21.10
2022-09-06T19:11:51.593Z,21.10
2022-09-06T19:14:20.300Z,21.10
2022-09-06T19:16:50.127Z,21.10
2022-09-06T19:19:19.688Z,21.00
2022-09-06T19:21:47.764Z,20.90
2022-09-06T19:24:16.127Z,20.90
2022-09-06T19:26:45.689Z,20.90
2022-09-06T19:29:15.647Z,20.80
2022-09-06T19:31:44.600Z,20.80
2022-09-06T19:34:15.206Z,20.80
2022-09-06T19:36:45.631Z,20.70
2022-09-06T19:39:16.011Z,20.60
2022-09-06T19:41:46.624Z,20.60
2022-09-06T19:44:15.873Z,20.50
2022-09-06T19:46:46.597Z,20.50
2022-09-06T19:49:16.228Z,20.40
2022-09-06T19:51:46.533Z,20.40
2022-09-06T19:54:15.293Z,20.40
2022-09-06T19:56:44.161Z,20.30
2022-09-06T19:59:13.168Z,20.20
2022-09-06T20:01:42.957Z,20.20
2022-09-06T20:04:13.180Z,20.10
2022-09-06T20:06:41.541Z,20.10
2022-09-06T20:09:11.920Z,20.10
2022-09-06T20:11:41.227Z,20.10
2022-09-06T20:14:10.176Z,20.00
2022-09-06T20:16:41.927Z,19.90
2022-09-06T20:19:11.840Z,19.90
2022-09-06T20:21:40.037Z,19.70
2022-09-06T20:24:08.343Z,19.60
2022-09-06T20:26:38.090Z,19.60
2022-09-06T20:29:06.607Z,19.60
2022-09-06T20:31:36.593Z,19.50
2022-09-06T20:34:06.321Z,19.50
2022-09-06T20:36:35.040Z,19.40
2022-09-06T20:39:03.307Z,19.40
2022-09-06T20:41:31.537Z,19.40
2022-09-06T20:44:01.317Z,19.40
2022-09-06T20:46:31.027Z,19.30
2022-09-06T20:49:04.235Z,19.30
2022-09-06T20:51:33.927Z,19.30
2022-09-06T20:54:03.155Z,19.30
2022-09-06T20:56:33.816Z,19.20
2022-09-06T20:59:07.305Z,19.30
2022-09-06T21:01:37.438Z,19.20
2022-09-06T21:04:07.972Z,19.10
2022-09-06T21:06:37.848Z,19.00
2022-09-06T21:09:07.527Z,19.00
2022-09-06T21:11:36.166Z,19.00
2022-09-06T21:14:06.515Z,19.00
2022-09-06T21:16:34.953Z,18.90
2022-09-06T21:19:05.478Z,18.90
2022-09-06T21:21:35.223Z,18.90
2022-09-06T21:24:04.798Z,19.00
2022-09-06T21:26:32.880Z,19.10
2022-09-06T21:29:00.984Z,19.20
2022-09-06T21:31:32.227Z,19.30
2022-09-06T21:34:03.056Z,19.30
2022-09-06T21:36:32.946Z,19.30
2022-09-06T21:39:02.687Z,19.30
2022-09-06T21:41:31.850Z,19.40
2022-09-06T21:44:01.250Z,19.40
2022-09-06T21:46:33.603Z,19.40
2022-09-06T21:49:03.962Z,19.30
2022-09-06T21:51:32.891Z,19.40
2022-09-06T21:54:04.828Z,19.30
2022-09-06T21:56:33.934Z,19.30
2022-09-06T21:59:02.132Z,19.20
2022-09-06T22:01:34.004Z,19.20
2022-09-06T22:04:02.426Z,19.20
2022-09-06T22:06:32.706Z,19.30
2022-09-06T22:09:04.570Z,19.30
2022-09-06T22:11:34.402Z,19.40
2022-09-06T22:14:04.882Z,19.50
2022-09-06T22:16:39.087Z,19.50
2022-09-06T22:19:09.096Z,19.50
2022-09-06T22:21:38.533Z,19.50
2022-09-06T22:24:08.493Z,19.50
2022-09-06T22:26:37.940Z,19.50
2022-09-06T22:29:07.693Z,19.50
2022-09-06T22:31:37.593Z,19.50
2022-09-06T22:34:06.500Z,19.50
2022-09-06T22:36:34.611Z,19.50
2022-09-06T22:39:02.638Z,19.60
2022-09-06T22:41:32.713Z,19.70
2022-09-06T22:44:00.973Z,19.80
2022-09-06T22:46:29.915Z,19.90
2022-09-06T22:48:59.574Z,20.10
2022-09-06T22:51:27.623Z,20.10
2022-09-06T22:53:55.723Z,20.10
2022-09-06T22:56:24.379Z,20.10
2022-09-06T22:58:52.503Z,20.10
2022-09-06T23:01:20.601Z,20.00
2022-09-06T23:03:49.428Z,19.80
2022-09-06T23:06:18.929Z,19.70
2022-09-06T23:08:47.110Z,19.70
2022-09-06T23:11:16.813Z,19.60
2022-09-06T23:13:44.890Z,19.70
2022-09-06T23:16:15.489Z,19.70
2022-09-06T23:18:43.994Z,19.70
2022-09-06T23:21:13.362Z,19.70
2022-09-06T23:23:43.326Z,19.70
2022-09-06T23:26:13.815Z,19.70
2022-09-06T23:28:42.289Z,19.70
2022-09-06T23:31:14.055Z,19.70
2022-09-06T23:33:42.775Z,19.60
2022-09-06T23:36:12.897Z,19.70
2022-09-06T23:38:43.333Z,19.70
2022-09-06T23:41:11.745Z,19.80
2022-09-06T23:43:41.180Z,19.80
2022-09-06T23:46:10.413Z,19.70
2022-09-06T23:48:38.517Z,19.70
2022-09-06T23:51:06.882Z,19.70
2022-09-06T23:53:35.570Z,19.60
2022-09-06T23:56:05.362Z,19.50
2022-09-06T23:58:33.408Z,19.40
